Time;durP1;ratioP1;P1;durP2;ratioP2;P2;SDS_P1;SDS_P2;PMS_P1;PMS_P2;Temp;Humidity;BMP_temperature;BMP_pressure;BME280_temperature;BME280_humidity;BME280_pressure;Samples;Min_cycle;Max_cycle;Signal;HPM_P1;HPM_P2
2022/01/24 00:01:14;;;;;;;;;;;;;;;;;;4997878;28;19910;-48
2022/01/24 00:03:39;;;;;;;;;;;;;;;;;;4997873;28;19913;-48
2022/01/24 00:06:09;;;;;;;;;;;;;;;;;;4997670;28;20365;-49
2022/01/24 00:08:34;;;;;;;;;;;;;;;;;;4997883;28;19941;-48
2022/01/24 00:11:05;;;;;;;;;;;;;;;;;;4997843;28;20285;-50
2022/01/24 00:14:16;;;;;;;;;;;;;;;;;;4997813;28;19932;-48
2022/01/24 00:16:29;;;;;;;;;;;;;;;;;;4997533;28;19906;-49
2022/01/24 00:26:47;;;;;;;;;;;;;;;;;;4997943;28;19912;-48
2022/01/24 00:29:12;;;;;;;;;;;;;;;;;;4997744;28;19996;-47
2022/01/24 00:31:37;;;;;;;;;;;;;;;;;;4997507;28;19913;-47
2022/01/24 00:34:02;;;;;;;;;;;;;;;;;;4980126;28;19912;-47
2022/01/24 00:36:27;;;;;;;;;;;;;;;;;;4997451;28;19913;-47
2022/01/24 00:38:53;;;;;;;;;;;;;;;;;;4996484;28;19906;-47
2022/01/24 00:41:20;;;;;;;;;;;;;;;;;;4997363;28;19912;-47
2022/01/24 00:44:32;;;;;;;;;;;;;;;;;;4997127;28;19916;-47
2022/01/24 00:46:45;;;;;;;;;;;;;;;;;;4996712;28;19976;-47
2022/01/24 00:56:59;;;;;;;;;;;;;;;;;;4997185;28;20090;-47
2022/01/24 00:59:24;;;;;;;;;;;;;;;;;;4996969;28;19906;-48
2022/01/24 01:01:49;;;;;;;;;;;;;;;;;;4996935;28;19957;-48
2022/01/24 01:04:15;;;;;;;;;;;;;;;;;;4996760;28;19909;-48
2022/01/24 01:06:43;;;;;;;;;;;;;;;;;;4996572;28;19918;-48
2022/01/24 01:20:04;;;;;;;;;;;;;;;;;;4996860;28;19913;-48
2022/01/24 01:22:29;;;;;;;;;;;;;;;;;;4996413;28;19906;-47
2022/01/24 01:24:55;;;;;;;;;;;;;;;;;;4996435;28;19912;-49
2022/01/24 01:27:26;;;;;;;;;;;;;;;;;;4996379;28;19920;-47
2022/01/24 01:30:00;;;;;;;;;;;;;;;;;;4996397;28;19941;-48
2022/01/24 01:53:47;;;;;;;;;;;;;;;;;;4996072;28;19945;-50
2022/01/24 01:56:09;;;;;;;;;;;;;;;;;;4995734;28;19905;-49
2022/01/24 01:58:34;;;;;;;;;;;;;;;;;;4995847;28;20246;-50
2022/01/24 02:00:59;;;;;;;;;;;;;;;;;;4995894;28;19906;-49
2022/01/24 02:03:24;;;;;;;;;;;;;;;;;;4995699;28;20353;-47
2022/01/24 02:05:50;;;;;;;;;;;;;;;;;;4995555;28;19924;-50
2022/01/24 02:08:16;;;;;;;;;;;;;;;;;;4995747;28;20104;-48
2022/01/24 02:10:42;;;;;;;;;;;;;;;;;;4995595;28;19956;-47
2022/01/24 02:13:07;;;;;;;;;;;;;;;;;;4995640;28;19927;-48
2022/01/24 02:20:39;;;;;;;;;;;;;;;;;;4995500;28;19909;-48
2022/01/24 02:24:05;;;;;;;;;;;;;;;;;;4995466;28;19909;-47
2022/01/24 02:25:59;;;;;;;;;;;;;;;;;;4986322;28;20022;-48
2022/01/24 02:28:27;;;;;;;;;;;;;;;;;;4995413;28;19953;-48
2022/01/24 02:31:21;;;;;;;;;;;;;;;;;;4995325;28;19906;-47
2022/01/24 02:33:48;;;;;;;;;;;;;;;;;;4995129;28;19921;-47
2022/01/24 02:36:13;;;;;;;;;;;;;;;;;;4995138;28;20000;-48
2022/01/24 02:38:54;;;;;;;;;;;;;;;;;;4995171;28;20384;-49
2022/01/24 02:49:25;;;;;;;;;;;;;;;;;;4995249;28;19906;-47
2022/01/24 02:51:51;;;;;;;;;;;;;;;;;;4977803;28;19969;-49
2022/01/24 02:54:16;;;;;;;;;;;;;;;;;;4995096;28;19913;-47
2022/01/24 02:56:41;;;;;;;;;;;;;;;;;;4995035;28;20399;-47
2022/01/24 02:59:06;;;;;;;;;;;;;;;;;;4994930;28;20277;-48
2022/01/24 03:01:31;;;;;;;;;;;;;;;;;;4995406;28;19928;-50
2022/01/24 03:03:56;;;;;;;;;;;;;;;;;;4981330;28;19933;-50
2022/01/24 03:06:21;;;;;;;;;;;;;;;;;;4999023;28;19918;-47
2022/01/24 03:08:46;;;;;;;;;;;;;;;;;;4998958;28;19960;-49
2022/01/24 03:11:11;;;;;;;;;;;;;;;;;;4998848;28;19909;-48
2022/01/24 03:13:37;;;;;;;;;;;;;;;;;;4998940;28;19913;-48
2022/01/24 03:16:02;;;;;;;;;;;;;;;;;;4981351;28;20366;-48
2022/01/24 03:18:27;;;;;;;;;;;;;;;;;;4981236;28;20319;-49
2022/01/24 03:20:52;;;;;;;;;;;;;;;;;;4998757;28;20019;-48
2022/01/24 03:23:17;;;;;;;;;;;;;;;;;;4998735;28;19909;-47
2022/01/24 03:25:42;;;;;;;;;;;;;;;;;;4998691;28;20387;-48
2022/01/24 03:28:07;;;;;;;;;;;;;;;;;;4981198;28;19905;-49
2022/01/24 03:30:32;;;;;;;;;;;;;;;;;;4998510;28;19906;-50
2022/01/24 03:32:57;;;;;;;;;;;;;;;;;;4998477;28;19906;-47
2022/01/24 03:35:23;;;;;;;;;;;;;;;;;;4998364;28;20490;-48
2022/01/24 03:37:50;;;;;;;;;;;;;;;;;;4998439;28;19906;-47
2022/01/24 03:40:15;;;;;;;;;;;;;;;;;;4998349;28;20004;-47
2022/01/24 03:42:40;;;;;;;;;;;;;;;;;;4998487;28;19909;-47
2022/01/24 03:45:07;;;;;;;;;;;;;;;;;;4998369;28;19961;-48
2022/01/24 03:50:01;;;;;;;;;;;;;;;;;;5000178;28;19997;-48
2022/01/24 03:52:26;;;;;;;;;;;;;;;;;;4998564;28;19941;-48
2022/01/24 03:54:51;;;;;;;;;;;;;;;;;;4998437;28;19944;-48
2022/01/24 03:57:16;;;;;;;;;;;;;;;;;;4998282;28;20388;-47
2022/01/24 03:59:41;;;;;;;;;;;;;;;;;;4998152;28;20440;-47
2022/01/24 04:02:06;;;;;;;;;;;;;;;;;;4980581;28;20361;-48
2022/01/24 04:04:31;;;;;;;;;;;;;;;;;;4997746;28;19910;-47
2022/01/24 04:06:56;;;;;;;;;;;;;;;;;;4998078;28;19909;-47
2022/01/24 04:09:22;;;;;;;;;;;;;;;;;;4997979;28;19909;-48
2022/01/24 04:11:51;;;;;;;;;;;;;;;;;;4997964;28;19906;-47
2022/01/24 04:17:05;;;;;;;;;;;;;;;;;;4997817;28;20273;-47
2022/01/24 04:22:23;;;;;;;;;;;;;;;;;;4981840;28;19906;-48
2022/01/24 04:24:49;;;;;;;;;;;;;;;;;;4980165;28;19910;-48
2022/01/24 04:27:14;;;;;;;;;;;;;;;;;;4997747;28;20269;-48
2022/01/24 04:29:39;;;;;;;;;;;;;;;;;;4997502;28;19906;-48
2022/01/24 04:32:04;;;;;;;;;;;;;;;;;;4997285;28;20400;-47
2022/01/24 04:34:29;;;;;;;;;;;;;;;;;;4997512;28;20068;-48
2022/01/24 04:36:55;;;;;;;;;;;;;;;;;;4997498;28;20036;-47
2022/01/24 04:39:20;;;;;;;;;;;;;;;;;;4997371;28;19916;-48
2022/01/24 04:41:48;;;;;;;;;;;;;;;;;;4997332;28;19936;-48
2022/01/24 04:44:50;;;;;;;;;;;;;;;;;;4997072;28;19917;-48
2022/01/24 04:47:37;;;;;;;;;;;;;;;;;;4997317;28;20372;-47
2022/01/24 04:53:09;;;;;;;;;;;;;;;;;;4956366;29;19906;-47
2022/01/24 04:55:34;;;;;;;;;;;;;;;;;;4990097;28;20346;-48
2022/01/24 04:57:59;;;;;;;;;;;;;;;;;;4996994;28;20001;-48
2022/01/24 05:00:25;;;;;;;;;;;;;;;;;;4996879;28;20085;-48
2022/01/24 05:02:50;;;;;;;;;;;;;;;;;;4979321;28;20011;-47
2022/01/24 05:05:19;;;;;;;;;;;;;;;;;;4996680;28;20008;-47
2022/01/24 05:07:44;;;;;;;;;;;;;;;;;;4996802;28;19912;-47
2022/01/24 05:23:42;;;;;;;;;;;;;;;;;;4996453;28;20004;-49
2022/01/24 05:26:07;;;;;;;;;;;;;;;;;;4996147;28;19906;-51
2022/01/24 05:28:32;;;;;;;;;;;;;;;;;;4996385;28;19928;-48
2022/01/24 05:30:58;;;;;;;;;;;;;;;;;;4996369;28;20008;-49
2022/01/24 05:33:23;;;;;;;;;;;;;;;;;;4996214;28;19909;-50
2022/01/24 05:35:48;;;;;;;;;;;;;;;;;;4996259;28;19912;-47
2022/01/24 05:38:14;;;;;;;;;;;;;;;;;;4996310;28;19906;-47
2022/01/24 05:40:39;;;;;;;;;;;;;;;;;;4996176;28;19913;-49
2022/01/24 05:43:06;;;;;;;;;;;;;;;;;;4996001;28;20331;-48
2022/01/24 05:45:34;;;;;;;;;;;;;;;;;;4995961;28;19906;-48
2022/01/24 05:47:59;;;;;;;;;;;;;;;;;;4996013;28;19949;-48
2022/01/24 05:50:24;;;;;;;;;;;;;;;;;;4995956;28;19906;-48
2022/01/24 05:52:49;;;;;;;;;;;;;;;;;;4995963;28;19945;-49
2022/01/24 05:55:14;;;;;;;;;;;;;;;;;;4995858;28;20353;-49
2022/01/24 05:57:39;;;;;;;;;;;;;;;;;;4995821;28;20277;-48
2022/01/24 06:00:04;;;;;;;;;;;;;;;;;;4996085;28;19905;-50
2022/01/24 06:02:29;;;;;;;;;;;;;;;;;;4995748;28;19943;-51
2022/01/24 06:04:54;;;;;;;;;;;;;;;;;;4995378;28;20388;-48
2022/01/24 06:07:20;;;;;;;;;;;;;;;;;;4995681;28;19910;-47
2022/01/24 06:09:45;;;;;;;;;;;;;;;;;;4995836;28;19913;-48
2022/01/24 06:12:10;;;;;;;;;;;;;;;;;;4995747;28;19905;-47
2022/01/24 06:14:35;;;;;;;;;;;;;;;;;;4995692;28;19906;-48
2022/01/24 06:17:00;;;;;;;;;;;;;;;;;;4997194;28;20276;-48
2022/01/24 06:19:25;;;;;;;;;;;;;;;;;;4995679;28;19913;-47
2022/01/24 06:21:50;;;;;;;;;;;;;;;;;;4995472;28;20008;-47
2022/01/24 06:24:16;;;;;;;;;;;;;;;;;;4993720;28;19972;-47
2022/01/24 06:26:43;;;;;;;;;;;;;;;;;;4993942;28;19956;-47
2022/01/24 06:29:08;;;;;;;;;;;;;;;;;;4976716;28;20353;-48
2022/01/24 06:31:33;;;;;;;;;;;;;;;;;;4994572;28;19948;-47
2022/01/24 06:33:58;;;;;;;;;;;;;;;;;;4993621;28;19945;-49
2022/01/24 06:36:24;;;;;;;;;;;;;;;;;;4985582;28;20036;-47
2022/01/24 06:38:49;;;;;;;;;;;;;;;;;;4990706;28;19920;-48
2022/01/24 06:41:19;;;;;;;;;;;;;;;;;;4975445;28;19906;-48
2022/01/24 06:43:44;;;;;;;;;;;;;;;;;;4989738;28;20265;-51
2022/01/24 06:46:09;;;;;;;;;;;;;;;;;;4986859;28;19909;-50
2022/01/24 06:48:34;;;;;;;;;;;;;;;;;;4980068;28;19909;-49
2022/01/24 06:50:59;;;;;;;;;;;;;;;;;;4991117;28;20257;-50
2022/01/24 06:53:24;;;;;;;;;;;;;;;;;;4989567;28;19987;-50
2022/01/24 06:55:49;;;;;;;;;;;;;;;;;;4988111;28;20000;-50
2022/01/24 06:58:14;;;;;;;;;;;;;;;;;;4987613;28;20377;-49
2022/01/24 07:00:40;;;;;;;;;;;;;;;;;;4986032;28;19914;-49
2022/01/24 07:03:06;;;;;;;;;;;;;;;;;;4971211;28;19913;-50
2022/01/24 07:05:31;;;;;;;;;;;;;;;;;;4978109;28;19918;-49
2022/01/24 07:07:59;;;;;;;;;;;;;;;;;;4976437;28;20912;-51
2022/01/24 07:10:24;;;;;;;;;;;;;;;;;;4975224;28;19918;-50
2022/01/24 07:12:50;;;;;;;;;;;;;;;;;;4970064;28;19925;-49
2022/01/24 07:15:17;;;;;;;;;;;;;;;;;;4961126;28;19917;-50
2022/01/24 07:20:12;;;;;;;;;;;;;;;;;;4900743;28;19970;-49
2022/01/24 07:22:37;;;;;;;;;;;;;;;;;;4873862;28;19966;-49
2022/01/24 07:25:02;;;;;;;;;;;;;;;;;;4856742;28;19918;-49
2022/01/24 07:27:27;;;;;;;;;;;;;;;;;;4908000;28;19928;-50
2022/01/24 07:29:52;;;;;;;;;;;;;;;;;;4933486;28;19957;-48
2022/01/24 07:32:17;;;;;;;;;;;;;;;;;;4951289;28;19917;-50
2022/01/24 07:34:42;;;;;;;;;;;;;;;;;;4953190;28;19917;-49
2022/01/24 07:37:07;;;;;;;;;;;;;;;;;;4954219;28;19924;-50
2022/01/24 07:39:32;;;;;;;;;;;;;;;;;;4959106;28;20007;-49
2022/01/24 07:42:03;;;;;;;;;;;;;;;;;;4958954;28;20009;-51
2022/01/24 07:44:28;;;;;;;;;;;;;;;;;;4959271;28;19921;-48
2022/01/24 07:46:53;;;;;;;;;;;;;;;;;;4949572;28;22052;-49
2022/01/24 07:49:18;;;;;;;;;;;;;;;;;;4950220;28;20004;-51
2022/01/24 07:51:43;;;;;;;;;;;;;;;;;;4947771;28;19918;-48
2022/01/24 07:54:09;;;;;;;;;;;;;;;;;;4944852;28;19924;-49
2022/01/24 07:56:34;;;;;;;;;;;;;;;;;;4942732;28;19965;-49
2022/01/24 07:58:59;;;;;;;;;;;;;;;;;;4938755;28;20476;-48
2022/01/24 08:01:26;;;;;;;;;;;;;;;;;;4922576;28;19924;-49
2022/01/24 08:03:51;;;;;;;;;;;;;;;;;;4911172;28;19921;-50
2022/01/24 08:06:18;;;;;;;;;;;;;;;;;;4910606;28;19972;-49
2022/01/24 08:08:43;;;;;;;;;;;;;;;;;;4897681;28;22701;-49
2022/01/24 08:11:09;;;;;;;;;;;;;;;;;;4864106;28;22015;-49
2022/01/24 08:13:36;;;;;;;;;;;;;;;;;;4844157;28;19918;-48
2022/01/24 08:16:01;;;;;;;;;;;;;;;;;;4817132;28;19918;-49
2022/01/24 08:18:26;;;;;;;;;;;;;;;;;;4874409;28;21344;-48
2022/01/24 08:20:51;;;;;;;;;;;;;;;;;;4921081;28;19950;-49
2022/01/24 08:23:19;;;;;;;;;;;;;;;;;;4915640;28;19930;-51
2022/01/24 08:25:44;;;;;;;;;;;;;;;;;;4896768;28;19918;-49
2022/01/24 08:28:10;;;;;;;;;;;;;;;;;;4881170;28;20781;-49
2022/01/24 08:30:36;;;;;;;;;;;;;;;;;;4883314;28;21244;-49
2022/01/24 08:33:01;;;;;;;;;;;;;;;;;;4862979;28;19921;-49
2022/01/24 08:35:26;;;;;;;;;;;;;;;;;;4842013;28;20074;-52
2022/01/24 08:37:51;;;;;;;;;;;;;;;;;;4850210;28;22625;-51
2022/01/24 08:40:23;;;;;;;;;;;;;;;;;;4904108;28;19917;-51
2022/01/24 08:43:06;;;;;;;;;;;;;;;;;;4905337;28;19925;-49
2022/01/24 08:48:14;;;;;;;;;;;;;;;;;;4910917;28;20760;-49
2022/01/24 08:50:40;;;;;;;;;;;;;;;;;;4930344;28;19918;-52
2022/01/24 08:53:05;;;;;;;;;;;;;;;;;;4939361;28;19979;-50
2022/01/24 08:55:30;;;;;;;;;;;;;;;;;;4921256;28;20055;-49
2022/01/24 08:57:55;;;;;;;;;;;;;;;;;;4909546;28;19952;-49
2022/01/24 09:00:20;;;;;;;;;;;;;;;;;;4898365;28;19964;-48
2022/01/24 09:02:45;;;;;;;;;;;;;;;;;;4881160;28;19917;-50
2022/01/24 09:05:11;;;;;;;;;;;;;;;;;;4887308;28;19925;-49
2022/01/24 09:07:36;;;;;;;;;;;;;;;;;;4902766;28;20000;-51
2022/01/24 09:10:01;;;;;;;;;;;;;;;;;;4906402;28;19956;-48
2022/01/24 09:12:26;;;;;;;;;;;;;;;;;;4829974;28;22669;-49
2022/01/24 09:14:53;;;;;;;;;;;;;;;;;;4778153;28;19922;-49
2022/01/24 09:17:18;;;;;;;;;;;;;;;;;;4812896;28;22418;-48
2022/01/24 09:19:43;;;;;;;;;;;;;;;;;;4804357;28;22854;-49
2022/01/24 09:22:08;;;;;;;;;;;;;;;;;;4831961;28;20680;-48
2022/01/24 09:24:33;;;;;;;;;;;;;;;;;;4814075;28;21395;-52
2022/01/24 09:26:59;;;;;;;;;;;;;;;;;;4787155;28;20015;-52
2022/01/24 09:29:24;;;;;;;;;;;;;;;;;;4851328;28;19918;-49
2022/01/24 09:31:49;;;;;;;;;;;;;;;;;;4890076;28;20299;-49
2022/01/24 09:34:14;;;;;;;;;;;;;;;;;;4907830;28;19944;-49
2022/01/24 09:36:39;;;;;;;;;;;;;;;;;;4915407;28;19948;-49
2022/01/24 09:39:05;;;;;;;;;;;;;;;;;;4914464;28;19918;-49
2022/01/24 09:41:30;;;;;;;;;;;;;;;;;;4919638;28;19918;-50
2022/01/24 09:43:55;;;;;;;;;;;;;;;;;;4920346;28;19979;-48
2022/01/24 09:46:20;;;;;;;;;;;;;;;;;;4918331;28;19917;-49
2022/01/24 09:48:45;;;;;;;;;;;;;;;;;;4911658;28;20469;-49
2022/01/24 09:51:10;;;;;;;;;;;;;;;;;;4913116;28;20035;-49
2022/01/24 09:53:37;;;;;;;;;;;;;;;;;;4916516;28;20073;-51
2022/01/24 09:56:04;;;;;;;;;;;;;;;;;;4927191;28;19924;-50
2022/01/24 09:58:29;;;;;;;;;;;;;;;;;;4914330;28;20360;-48
2022/01/24 10:00:55;;;;;;;;;;;;;;;;;;4924774;28;20005;-49
2022/01/24 10:03:23;;;;;;;;;;;;;;;;;;4914416;28;20388;-49
2022/01/24 10:05:48;;;;;;;;;;;;;;;;;;4923468;28;20375;-49
2022/01/24 10:08:13;;;;;;;;;;;;;;;;;;4907784;28;19917;-51
2022/01/24 10:10:41;;;;;;;;;;;;;;;;;;4915352;28;20448;-49
2022/01/24 10:18:15;;;;;;;;;;;;;;;;;;4914386;28;19925;-49
2022/01/24 10:20:40;;;;;;;;;;;;;;;;;;4908401;28;19917;-50
2022/01/24 10:23:05;;;;;;;;;;;;;;;;;;4815872;28;21808;-49
2022/01/24 10:25:30;;;;;;;;;;;;;;;;;;4774800;28;23866;-48
2022/01/24 10:27:55;;;;;;;;;;;;;;;;;;4807649;28;19917;-52
2022/01/24 10:30:20;;;;;;;;;;;;;;;;;;4855439;28;19960;-49
2022/01/24 10:32:49;;;;;;;;;;;;;;;;;;4878984;28;20616;-49
2022/01/24 10:35:14;;;;;;;;;;;;;;;;;;4895204;28;19964;-49
2022/01/24 10:37:39;;;;;;;;;;;;;;;;;;4912038;28;20300;-49
2022/01/24 10:40:19;;;;;;;;;;;;;;;;;;4922114;28;20506;-49
2022/01/24 10:42:55;;;;;;;;;;;;;;;;;;4904967;28;19918;-51
2022/01/24 10:45:21;;;;;;;;;;;;;;;;;;4914666;28;19925;-49
2022/01/24 10:47:49;;;;;;;;;;;;;;;;;;4924145;28;19918;-49
2022/01/24 10:50:14;;;;;;;;;;;;;;;;;;4919337;28;20732;-51
2022/01/24 10:52:39;;;;;;;;;;;;;;;;;;4918292;28;19918;-49
2022/01/24 10:55:04;;;;;;;;;;;;;;;;;;4918688;28;22722;-49
2022/01/24 10:57:29;;;;;;;;;;;;;;;;;;4913739;28;21222;-51
2022/01/24 10:59:54;;;;;;;;;;;;;;;;;;4902491;28;19917;-51
2022/01/24 11:02:19;;;;;;;;;;;;;;;;;;4902177;28;20049;-49
2022/01/24 11:04:45;;;;;;;;;;;;;;;;;;4917420;23;20313;-49
2022/01/24 11:07:10;;;;;;;;;;;;;;;;;;4905880;28;19921;-48
2022/01/24 11:09:35;;;;;;;;;;;;;;;;;;4908645;28;19914;-51
2022/01/24 11:12:00;;;;;;;;;;;;;;;;;;4909038;28;23979;-48
2022/01/24 11:14:26;;;;;;;;;;;;;;;;;;4906530;28;22922;-51
2022/01/24 11:16:52;;;;;;;;;;;;;;;;;;4882334;28;19924;-51
2022/01/24 11:19:23;;;;;;;;;;;;;;;;;;4897771;28;19964;-51
2022/01/24 11:21:51;;;;;;;;;;;;;;;;;;4913454;28;19917;-50
2022/01/24 11:24:19;;;;;;;;;;;;;;;;;;4929399;28;20365;-52
2022/01/24 11:26:45;;;;;;;;;;;;;;;;;;4916761;28;20387;-51
2022/01/24 11:29:10;;;;;;;;;;;;;;;;;;4921745;28;19918;-51
2022/01/24 11:31:35;;;;;;;;;;;;;;;;;;4910934;28;19961;-47
2022/01/24 11:34:00;;;;;;;;;;;;;;;;;;4922539;28;19917;-49
2022/01/24 11:36:25;;;;;;;;;;;;;;;;;;4921151;28;19924;-49
2022/01/24 11:38:50;;;;;;;;;;;;;;;;;;4940353;28;19917;-49
2022/01/24 11:41:23;;;;;;;;;;;;;;;;;;4947999;28;19972;-49
2022/01/24 11:43:50;;;;;;;;;;;;;;;;;;4937508;28;20056;-48
2022/01/24 11:46:15;;;;;;;;;;;;;;;;;;4931177;28;19917;-49
2022/01/24 11:48:40;;;;;;;;;;;;;;;;;;4934188;28;19945;-48
2022/01/24 11:51:06;;;;;;;;;;;;;;;;;;4929397;28;19917;-53
2022/01/24 11:53:33;;;;;;;;;;;;;;;;;;4939732;28;19925;-52
2022/01/24 11:55:58;;;;;;;;;;;;;;;;;;4938656;28;19924;-49
2022/01/24 11:58:23;;;;;;;;;;;;;;;;;;4928658;28;20706;-48
2022/01/24 12:00:50;;;;;;;;;;;;;;;;;;4935213;28;20008;-49
2022/01/24 12:03:15;;;;;;;;;;;;;;;;;;4928952;28;19922;-49
2022/01/24 12:05:41;;;;;;;;;;;;;;;;;;4930111;28;19933;-49
2022/01/24 12:08:06;;;;;;;;;;;;;;;;;;4928442;28;20072;-49
2022/01/24 12:13:01;;;;;;;;;;;;;;;;;;4941634;28;19918;-49
2022/01/24 12:15:26;;;;;;;;;;;;;;;;;;4926175;28;19953;-48
2022/01/24 12:17:52;;;;;;;;;;;;;;;;;;4938090;28;19918;-50
2022/01/24 12:20:17;;;;;;;;;;;;;;;;;;4930047;28;19917;-48
2022/01/24 12:22:42;;;;;;;;;;;;;;;;;;4924558;28;20686;-48
2022/01/24 12:25:07;;;;;;;;;;;;;;;;;;4921166;28;20091;-50
2022/01/24 12:27:32;;;;;;;;;;;;;;;;;;4912981;28;19976;-50
2022/01/24 12:29:59;;;;;;;;;;;;;;;;;;4930067;28;20000;-49
2022/01/24 12:32:26;;;;;;;;;;;;;;;;;;4931484;28;20016;-50
2022/01/24 12:34:52;;;;;;;;;;;;;;;;;;4912100;28;22419;-49
2022/01/24 12:37:17;;;;;;;;;;;;;;;;;;4900513;28;19945;-52
2022/01/24 12:39:46;;;;;;;;;;;;;;;;;;4900418;28;22025;-50
2022/01/24 12:42:19;;;;;;;;;;;;;;;;;;4915849;28;21175;-52
2022/01/24 12:47:09;;;;;;;;;;;;;;;;;;4926027;28;20974;-52
2022/01/24 12:49:34;;;;;;;;;;;;;;;;;;4951337;28;20541;-49
2022/01/24 12:52:00;;;;;;;;;;;;;;;;;;4948534;28;20121;-49
2022/01/24 12:54:25;;;;;;;;;;;;;;;;;;4948580;28;20365;-49
2022/01/24 12:56:50;;;;;;;;;;;;;;;;;;4951891;28;19942;-48
2022/01/24 12:59:15;;;;;;;;;;;;;;;;;;4948827;28;19928;-50
2022/01/24 13:01:42;;;;;;;;;;;;;;;;;;4941479;28;20020;-49
2022/01/24 13:04:10;;;;;;;;;;;;;;;;;;4952287;28;19921;-49
2022/01/24 13:06:35;;;;;;;;;;;;;;;;;;4949950;28;21429;-52
2022/01/24 13:09:00;;;;;;;;;;;;;;;;;;4948452;28;19949;-52
2022/01/24 13:11:27;;;;;;;;;;;;;;;;;;4943510;28;19917;-50
2022/01/24 13:13:53;;;;;;;;;;;;;;;;;;4948554;28;19917;-49
2022/01/24 13:21:46;;;;;;;;;;;;;;;;;;4955890;28;19964;-51
2022/01/24 13:24:11;;;;;;;;;;;;;;;;;;4951994;28;19922;-49
2022/01/24 13:26:38;;;;;;;;;;;;;;;;;;4953622;28;20012;-49
2022/01/24 13:29:03;;;;;;;;;;;;;;;;;;4951831;28;19921;-49
2022/01/24 13:31:28;;;;;;;;;;;;;;;;;;4957872;28;20368;-50
2022/01/24 13:33:53;;;;;;;;;;;;;;;;;;4954201;28;20032;-51
2022/01/24 13:36:20;;;;;;;;;;;;;;;;;;4955611;28;20590;-49
2022/01/24 13:38:45;;;;;;;;;;;;;;;;;;4948369;28;19917;-50
2022/01/24 13:41:11;;;;;;;;;;;;;;;;;;4952059;28;20582;-49
2022/01/24 13:43:36;;;;;;;;;;;;;;;;;;4950374;28;19921;-51
2022/01/24 13:46:01;;;;;;;;;;;;;;;;;;4955891;28;20344;-49
2022/01/24 13:48:26;;;;;;;;;;;;;;;;;;4952213;28;19924;-50
2022/01/24 13:50:51;;;;;;;;;;;;;;;;;;4959817;28;19985;-51
2022/01/24 13:53:16;;;;;;;;;;;;;;;;;;4955513;28;19937;-49
2022/01/24 13:55:42;;;;;;;;;;;;;;;;;;4955744;28;19918;-49
2022/01/24 13:58:07;;;;;;;;;;;;;;;;;;4950710;28;20605;-49
2022/01/24 14:00:32;;;;;;;;;;;;;;;;;;4952786;28;19924;-50
2022/01/24 14:02:57;;;;;;;;;;;;;;;;;;4954006;28;19924;-49
2022/01/24 14:05:22;;;;;;;;;;;;;;;;;;4951652;28;19933;-49
2022/01/24 14:07:47;;;;;;;;;;;;;;;;;;4952247;28;19925;-50
2022/01/24 14:10:13;;;;;;;;;;;;;;;;;;4956573;28;19987;-49
2022/01/24 14:12:42;;;;;;;;;;;;;;;;;;4958052;28;19918;-49
2022/01/24 14:15:11;;;;;;;;;;;;;;;;;;4932059;28;19917;-49
2022/01/24 14:18:19;;;;;;;;;;;;;;;;;;4946846;28;19928;-48
2022/01/24 14:20:39;;;;;;;;;;;;;;;;;;4936797;28;19930;-49
2022/01/24 14:23:04;;;;;;;;;;;;;;;;;;4944986;28;22151;-48
2022/01/24 14:25:31;;;;;;;;;;;;;;;;;;4947365;28;19924;-50
2022/01/24 14:27:56;;;;;;;;;;;;;;;;;;4955585;28;20678;-49
2022/01/24 14:30:22;;;;;;;;;;;;;;;;;;4964308;28;22430;-52
2022/01/24 14:32:49;;;;;;;;;;;;;;;;;;4964892;28;19918;-51
2022/01/24 14:35:14;;;;;;;;;;;;;;;;;;4970645;28;20377;-51
2022/01/24 14:37:39;;;;;;;;;;;;;;;;;;4969512;28;20151;-51
2022/01/24 14:40:04;;;;;;;;;;;;;;;;;;4978822;28;19910;-50
2022/01/24 14:42:45;;;;;;;;;;;;;;;;;;4977845;28;19918;-49
2022/01/24 14:45:10;;;;;;;;;;;;;;;;;;4974922;28;19918;-51
2022/01/24 14:47:35;;;;;;;;;;;;;;;;;;4976307;28;19926;-51
2022/01/24 14:50:00;;;;;;;;;;;;;;;;;;4977944;28;19971;-48
2022/01/24 14:52:27;;;;;;;;;;;;;;;;;;4979426;28;19910;-51
2022/01/24 14:54:52;;;;;;;;;;;;;;;;;;4976549;28;20008;-53
2022/01/24 14:57:17;;;;;;;;;;;;;;;;;;4977105;28;19997;-51
2022/01/24 14:59:42;;;;;;;;;;;;;;;;;;4980449;28;19928;-50
2022/01/24 15:02:07;;;;;;;;;;;;;;;;;;4978053;28;19917;-50
2022/01/24 15:04:32;;;;;;;;;;;;;;;;;;4977984;28;19922;-53
2022/01/24 15:06:57;;;;;;;;;;;;;;;;;;4978282;28;19922;-50
2022/01/24 15:09:23;;;;;;;;;;;;;;;;;;4977407;28;19918;-50
2022/01/24 15:11:48;;;;;;;;;;;;;;;;;;4975324;28;19917;-52
2022/01/24 15:14:21;;;;;;;;;;;;;;;;;;4976253;28;19914;-50
2022/01/24 15:27:10;;;;;;;;;;;;;;;;;;4989259;28;23300;-52
2022/01/24 15:29:35;;;;;;;;;;;;;;;;;;4989505;28;20419;-51
2022/01/24 15:32:03;;;;;;;;;;;;;;;;;;4992232;28;19941;-51
2022/01/24 15:34:28;;;;;;;;;;;;;;;;;;4990238;28;19920;-51
2022/01/24 15:36:53;;;;;;;;;;;;;;;;;;4980483;28;20272;-50
2022/01/24 15:39:18;;;;;;;;;;;;;;;;;;4983991;28;19913;-51
2022/01/24 15:42:09;;;;;;;;;;;;;;;;;;4989051;28;19992;-48
2022/01/24 15:44:46;;;;;;;;;;;;;;;;;;4988246;28;20366;-48
2022/01/24 15:49:39;;;;;;;;;;;;;;;;;;4991795;28;20310;-49
2022/01/24 15:52:04;;;;;;;;;;;;;;;;;;4991369;28;19945;-51
2022/01/24 15:54:31;;;;;;;;;;;;;;;;;;4990800;28;19921;-49
2022/01/24 15:59:40;;;;;;;;;;;;;;;;;;4990265;28;19920;-49
2022/01/24 16:02:05;;;;;;;;;;;;;;;;;;4990519;28;20343;-48
2022/01/24 16:04:30;;;;;;;;;;;;;;;;;;4990494;28;19913;-48
2022/01/24 16:06:55;;;;;;;;;;;;;;;;;;4991806;28;19921;-49
2022/01/24 16:09:21;;;;;;;;;;;;;;;;;;4988838;28;19910;-48
2022/01/24 16:11:47;;;;;;;;;;;;;;;;;;4996366;28;19910;-50
2022/01/24 16:14:13;;;;;;;;;;;;;;;;;;4996433;28;19968;-48
2022/01/24 16:16:39;;;;;;;;;;;;;;;;;;4993785;28;19913;-49
2022/01/24 16:19:04;;;;;;;;;;;;;;;;;;4995252;28;20365;-49
2022/01/24 16:21:39;;;;;;;;;;;;;;;;;;4993915;28;19928;-49
2022/01/24 16:26:39;;;;;;;;;;;;;;;;;;4995603;28;19945;-48
2022/01/24 16:29:04;;;;;;;;;;;;;;;;;;4996256;28;20372;-48
2022/01/24 16:31:29;;;;;;;;;;;;;;;;;;4993567;28;20298;-49
2022/01/24 16:33:54;;;;;;;;;;;;;;;;;;4992315;28;19976;-48
2022/01/24 16:36:19;;;;;;;;;;;;;;;;;;4994419;28;19977;-48
2022/01/24 16:38:46;;;;;;;;;;;;;;;;;;4994470;28;19917;-50
2022/01/24 16:41:18;;;;;;;;;;;;;;;;;;4994948;28;20379;-48
2022/01/24 16:43:53;;;;;;;;;;;;;;;;;;4993805;28;19914;-50
2022/01/24 16:49:02;;;;;;;;;;;;;;;;;;4994340;28;19920;-49
2022/01/24 16:51:27;;;;;;;;;;;;;;;;;;4993798;28;19917;-49
2022/01/24 16:53:55;;;;;;;;;;;;;;;;;;4993047;28;20361;-48
2022/01/24 16:56:20;;;;;;;;;;;;;;;;;;4994396;28;19909;-46
2022/01/24 16:58:47;;;;;;;;;;;;;;;;;;4996316;28;19910;-48
2022/01/24 17:01:13;;;;;;;;;;;;;;;;;;4991270;28;19910;-46
2022/01/24 17:03:38;;;;;;;;;;;;;;;;;;4994623;28;19920;-47
2022/01/24 17:06:03;;;;;;;;;;;;;;;;;;4994462;28;19953;-47
2022/01/24 17:08:28;;;;;;;;;;;;;;;;;;4988663;28;19917;-46
2022/01/24 17:10:54;;;;;;;;;;;;;;;;;;4996271;28;20364;-49
2022/01/24 17:13:20;;;;;;;;;;;;;;;;;;4996879;28;19914;-47
2022/01/24 17:15:50;;;;;;;;;;;;;;;;;;4996834;28;19906;-46
2022/01/24 17:18:15;;;;;;;;;;;;;;;;;;4996782;28;19906;-46
2022/01/24 17:20:40;;;;;;;;;;;;;;;;;;4996176;28;19960;-47
2022/01/24 17:23:05;;;;;;;;;;;;;;;;;;4996456;28;19912;-47
2022/01/24 17:25:30;;;;;;;;;;;;;;;;;;4996658;28;19912;-46
2022/01/24 17:27:58;;;;;;;;;;;;;;;;;;4996415;28;19912;-47
2022/01/24 17:30:23;;;;;;;;;;;;;;;;;;4995851;28;19931;-45
2022/01/24 17:32:48;;;;;;;;;;;;;;;;;;4995435;28;19960;-48
2022/01/24 17:35:13;;;;;;;;;;;;;;;;;;4996572;28;19960;-46
2022/01/24 17:37:38;;;;;;;;;;;;;;;;;;4996512;28;19910;-47
2022/01/24 17:40:03;;;;;;;;;;;;;;;;;;4996414;28;20392;-46
2022/01/24 17:42:28;;;;;;;;;;;;;;;;;;4996181;28;20372;-47
2022/01/24 17:44:53;;;;;;;;;;;;;;;;;;4996165;28;19956;-49
2022/01/24 17:47:21;;;;;;;;;;;;;;;;;;4996094;28;20001;-47
2022/01/24 17:49:46;;;;;;;;;;;;;;;;;;4996112;28;20004;-48
2022/01/24 17:52:11;;;;;;;;;;;;;;;;;;4994603;28;19949;-48
2022/01/24 17:54:36;;;;;;;;;;;;;;;;;;4996498;28;20000;-48
2022/01/24 17:57:01;;;;;;;;;;;;;;;;;;4978908;28;19909;-46
2022/01/24 17:59:26;;;;;;;;;;;;;;;;;;4997040;28;19910;-47
2022/01/24 18:01:51;;;;;;;;;;;;;;;;;;4996456;28;19905;-47
2022/01/24 18:04:16;;;;;;;;;;;;;;;;;;4996417;28;19909;-47
2022/01/24 18:06:44;;;;;;;;;;;;;;;;;;4996110;28;19918;-46
2022/01/24 18:09:09;;;;;;;;;;;;;;;;;;4996014;28;19906;-50
2022/01/24 18:11:34;;;;;;;;;;;;;;;;;;4995949;28;19976;-47
2022/01/24 18:13:59;;;;;;;;;;;;;;;;;;4996204;28;19917;-48
2022/01/24 18:16:24;;;;;;;;;;;;;;;;;;4995433;28;19910;-47
2022/01/24 18:18:50;;;;;;;;;;;;;;;;;;4996081;28;19906;-47
2022/01/24 18:21:19;;;;;;;;;;;;;;;;;;4995932;28;19906;-47
2022/01/24 18:23:44;;;;;;;;;;;;;;;;;;4995828;28;19945;-47
2022/01/24 18:26:09;;;;;;;;;;;;;;;;;;4995708;28;19960;-47
2022/01/24 18:28:35;;;;;;;;;;;;;;;;;;4995513;28;20016;-47
2022/01/24 18:31:00;;;;;;;;;;;;;;;;;;4995407;28;20480;-48
2022/01/24 18:33:25;;;;;;;;;;;;;;;;;;4994697;28;19948;-47
2022/01/24 18:35:50;;;;;;;;;;;;;;;;;;4995306;28;19957;-48
2022/01/24 18:38:15;;;;;;;;;;;;;;;;;;4995320;28;20407;-48
2022/01/24 18:40:41;;;;;;;;;;;;;;;;;;4995268;28;19916;-46
2022/01/24 18:43:06;;;;;;;;;;;;;;;;;;4995316;28;19928;-47
2022/01/24 18:45:31;;;;;;;;;;;;;;;;;;4995281;28;20380;-47
2022/01/24 18:47:56;;;;;;;;;;;;;;;;;;4995076;28;20000;-50